sensor_id;sensor_type;location;lat;lon;timestamp;P1;durP1;ratioP1;P2;durP2;ratioP2
76667;SDS011;65585;51.166;16.922;2024-01-06T00:01:52;36.58;;;16.77;;
76667;SDS011;65585;51.166;16.922;2024-01-06T00:04:18;36.08;;;16.38;;
76667;SDS011;65585;51.166;16.922;2024-01-06T00:06:44;34.78;;;17.02;;
76667;SDS011;65585;51.166;16.922;2024-01-06T00:09:10;36.42;;;18.10;;
76667;SDS011;65585;51.166;16.922;2024-01-06T00:11:36;35.63;;;15.95;;
76667;SDS011;65585;51.166;16.922;2024-01-06T00:14:02;40.80;;;17.85;;
76667;SDS011;65585;51.166;16.922;2024-01-06T00:16:28;36.40;;;16.67;;
76667;SDS011;65585;51.166;16.922;2024-01-06T00:18:54;37.17;;;17.42;;
76667;SDS011;65585;51.166;16.922;2024-01-06T00:21:20;36.75;;;17.65;;
76667;SDS011;65585;51.166;16.922;2024-01-06T00:23:46;32.63;;;16.80;;
76667;SDS011;65585;51.166;16.922;2024-01-06T00:26:12;41.13;;;18.35;;
76667;SDS011;65585;51.166;16.922;2024-01-06T00:28:41;34.95;;;15.75;;
76667;SDS011;65585;51.166;16.922;2024-01-06T00:31:07;30.92;;;16.83;;
76667;SDS011;65585;51.166;16.922;2024-01-06T00:33:32;37.42;;;18.10;;
76667;SDS011;65585;51.166;16.922;2024-01-06T00:35:59;31.65;;;16.67;;
76667;SDS011;65585;51.166;16.922;2024-01-06T00:38:24;34.05;;;17.13;;
76667;SDS011;65585;51.166;16.922;2024-01-06T00:40:51;33.08;;;16.50;;
76667;SDS011;65585;51.166;16.922;2024-01-06T00:43:17;32.28;;;16.55;;
76667;SDS011;65585;51.166;16.922;2024-01-06T00:45:43;34.42;;;15.63;;
76667;SDS011;65585;51.166;16.922;2024-01-06T00:48:09;35.38;;;17.15;;
76667;SDS011;65585;51.166;16.922;2024-01-06T00:50:35;35.50;;;17.75;;
76667;SDS011;65585;51.166;16.922;2024-01-06T00:53:01;32.08;;;16.95;;
76667;SDS011;65585;51.166;16.922;2024-01-06T00:55:27;31.08;;;17.40;;
76667;SDS011;65585;51.166;16.922;2024-01-06T00:57:53;38.55;;;18.38;;
76667;SDS011;65585;51.166;16.922;2024-01-06T01:00:19;37.30;;;17.33;;
76667;SDS011;65585;51.166;16.922;2024-01-06T01:02:45;36.20;;;17.25;;
76667;SDS011;65585;51.166;16.922;2024-01-06T01:05:12;37.28;;;17.77;;
76667;SDS011;65585;51.166;16.922;2024-01-06T01:07:37;31.55;;;16.90;;
76667;SDS011;65585;51.166;16.922;2024-01-06T01:10:04;42.05;;;19.85;;
76667;SDS011;65585;51.166;16.922;2024-01-06T01:12:31;33.70;;;17.27;;
76667;SDS011;65585;51.166;16.922;2024-01-06T01:14:57;40.60;;;20.05;;
76667;SDS011;65585;51.166;16.922;2024-01-06T01:17:23;34.10;;;18.08;;
76667;SDS011;65585;51.166;16.922;2024-01-06T01:19:49;38.17;;;18.35;;
76667;SDS011;65585;51.166;16.922;2024-01-06T01:22:15;37.00;;;19.30;;
76667;SDS011;65585;51.166;16.922;2024-01-06T01:24:41;36.08;;;19.20;;
76667;SDS011;65585;51.166;16.922;2024-01-06T01:27:07;36.67;;;17.02;;
76667;SDS011;65585;51.166;16.922;2024-01-06T01:29:33;33.15;;;18.25;;
76667;SDS011;65585;51.166;16.922;2024-01-06T01:31:59;33.28;;;17.00;;
76667;SDS011;65585;51.166;16.922;2024-01-06T01:34:25;36.58;;;17.88;;
76667;SDS011;65585;51.166;16.922;2024-01-06T01:36:51;36.83;;;17.45;;
76667;SDS011;65585;51.166;16.922;2024-01-06T01:39:17;34.45;;;16.88;;
76667;SDS011;65585;51.166;16.922;2024-01-06T01:41:43;34.88;;;16.83;;
76667;SDS011;65585;51.166;16.922;2024-01-06T01:44:09;35.67;;;18.05;;
76667;SDS011;65585;51.166;16.922;2024-01-06T01:46:35;42.70;;;16.95;;
76667;SDS011;65585;51.166;16.922;2024-01-06T01:49:02;36.25;;;18.48;;
76667;SDS011;65585;51.166;16.922;2024-01-06T01:51:29;29.13;;;18.55;;
76667;SDS011;65585;51.166;16.922;2024-01-06T01:53:57;38.45;;;18.83;;
76667;SDS011;65585;51.166;16.922;2024-01-06T01:56:23;34.58;;;17.70;;
76667;SDS011;65585;51.166;16.922;2024-01-06T01:58:50;33.67;;;17.90;;
76667;SDS011;65585;51.166;16.922;2024-01-06T02:01:16;30.08;;;17.55;;
76667;SDS011;65585;51.166;16.922;2024-01-06T02:03:43;36.10;;;17.52;;
76667;SDS011;65585;51.166;16.922;2024-01-06T02:06:09;34.00;;;17.95;;
76667;SDS011;65585;51.166;16.922;2024-01-06T02:08:36;32.15;;;16.30;;
76667;SDS011;65585;51.166;16.922;2024-01-06T02:11:02;40.22;;;18.42;;
76667;SDS011;65585;51.166;16.922;2024-01-06T02:13:32;35.47;;;18.02;;
76667;SDS011;65585;51.166;16.922;2024-01-06T02:15:59;31.92;;;17.73;;
76667;SDS011;65585;51.166;16.922;2024-01-06T02:18:25;34.55;;;17.67;;
76667;SDS011;65585;51.166;16.922;2024-01-06T02:20:51;36.35;;;17.92;;
76667;SDS011;65585;51.166;16.922;2024-01-06T02:23:19;31.80;;;17.20;;
76667;SDS011;65585;51.166;16.922;2024-01-06T02:25:44;39.65;;;17.15;;
76667;SDS011;65585;51.166;16.922;2024-01-06T02:28:10;33.90;;;17.70;;
76667;SDS011;65585;51.166;16.922;2024-01-06T02:30:36;34.92;;;16.58;;
76667;SDS011;65585;51.166;16.922;2024-01-06T02:33:02;35.03;;;17.65;;
76667;SDS011;65585;51.166;16.922;2024-01-06T02:35:28;33.67;;;17.40;;
76667;SDS011;65585;51.166;16.922;2024-01-06T02:37:58;34.55;;;17.13;;
76667;SDS011;65585;51.166;16.922;2024-01-06T02:40:30;30.63;;;16.55;;
76667;SDS011;65585;51.166;16.922;2024-01-06T02:43:06;40.60;;;17.73;;
76667;SDS011;65585;51.166;16.922;2024-01-06T02:45:41;35.50;;;17.35;;
76667;SDS011;65585;51.166;16.922;2024-01-06T02:48:20;33.22;;;17.73;;
76667;SDS011;65585;51.166;16.922;2024-01-06T02:50:51;34.28;;;16.30;;
76667;SDS011;65585;51.166;16.922;2024-01-06T02:53:29;32.22;;;16.05;;
76667;SDS011;65585;51.166;16.922;2024-01-06T02:56:00;32.22;;;17.35;;
76667;SDS011;65585;51.166;16.922;2024-01-06T02:58:36;33.60;;;16.92;;
76667;SDS011;65585;51.166;16.922;2024-01-06T03:01:11;29.25;;;15.75;;
76667;SDS011;65585;51.166;16.922;2024-01-06T03:03:45;30.50;;;16.23;;
76667;SDS011;65585;51.166;16.922;2024-01-06T03:06:21;29.63;;;15.50;;
76667;SDS011;65585;51.166;16.922;2024-01-06T03:08:58;32.05;;;16.10;;
76667;SDS011;65585;51.166;16.922;2024-01-06T03:11:40;30.40;;;14.52;;
76667;SDS011;65585;51.166;16.922;2024-01-06T03:14:22;32.92;;;16.08;;
76667;SDS011;65585;51.166;16.922;2024-01-06T03:17:02;30.85;;;15.07;;
76667;SDS011;65585;51.166;16.922;2024-01-06T03:19:40;33.20;;;15.70;;
76667;SDS011;65585;51.166;16.922;2024-01-06T03:22:10;28.15;;;15.27;;
76667;SDS011;65585;51.166;16.922;2024-01-06T03:24:45;32.20;;;15.13;;
76667;SDS011;65585;51.166;16.922;2024-01-06T03:27:15;29.48;;;14.27;;
76667;SDS011;65585;51.166;16.922;2024-01-06T03:29:49;30.02;;;16.60;;
76667;SDS011;65585;51.166;16.922;2024-01-06T03:32:28;24.13;;;13.95;;
76667;SDS011;65585;51.166;16.922;2024-01-06T03:35:00;27.98;;;14.95;;
76667;SDS011;65585;51.166;16.922;2024-01-06T03:37:42;26.92;;;13.73;;
76667;SDS011;65585;51.166;16.922;2024-01-06T03:40:21;28.73;;;14.80;;
76667;SDS011;65585;51.166;16.922;2024-01-06T03:42:55;26.08;;;14.65;;
76667;SDS011;65585;51.166;16.922;2024-01-06T03:45:30;36.40;;;16.92;;
76667;SDS011;65585;51.166;16.922;2024-01-06T03:48:15;34.80;;;15.77;;
76667;SDS011;65585;51.166;16.922;2024-01-06T03:50:48;28.65;;;15.50;;
76667;SDS011;65585;51.166;16.922;2024-01-06T03:53:24;32.72;;;15.63;;
76667;SDS011;65585;51.166;16.922;2024-01-06T03:55:56;29.85;;;15.70;;
76667;SDS011;65585;51.166;16.922;2024-01-06T03:58:33;34.50;;;15.80;;
76667;SDS011;65585;51.166;16.922;2024-01-06T04:03:43;28.10;;;14.32;;
76667;SDS011;65585;51.166;16.922;2024-01-06T04:06:14;34.90;;;15.73;;
76667;SDS011;65585;51.166;16.922;2024-01-06T04:08:45;33.13;;;15.57;;
76667;SDS011;65585;51.166;16.922;2024-01-06T04:11:21;35.97;;;15.63;;
76667;SDS011;65585;51.166;16.922;2024-01-06T04:14:07;29.67;;;15.35;;
76667;SDS011;65585;51.166;16.922;2024-01-06T04:16:51;31.75;;;16.20;;
76667;SDS011;65585;51.166;16.922;2024-01-06T04:19:26;38.50;;;16.70;;
76667;SDS011;65585;51.166;16.922;2024-01-06T04:24:39;26.98;;;13.70;;
76667;SDS011;65585;51.166;16.922;2024-01-06T04:27:13;30.08;;;14.93;;
76667;SDS011;65585;51.166;16.922;2024-01-06T04:30:04;30.27;;;15.98;;
76667;SDS011;65585;51.166;16.922;2024-01-06T04:33:06;32.30;;;15.18;;
76667;SDS011;65585;51.166;16.922;2024-01-06T04:35:53;33.80;;;15.57;;
76667;SDS011;65585;51.166;16.922;2024-01-06T04:38:44;28.33;;;13.55;;
76667;SDS011;65585;51.166;16.922;2024-01-06T04:41:19;32.40;;;15.20;;
76667;SDS011;65585;51.166;16.922;2024-01-06T04:43:54;31.77;;;14.82;;
76667;SDS011;65585;51.166;16.922;2024-01-06T04:46:33;32.00;;;15.02;;
76667;SDS011;65585;51.166;16.922;2024-01-06T04:49:26;31.05;;;16.60;;
76667;SDS011;65585;51.166;16.922;2024-01-06T04:52:17;28.65;;;15.23;;
76667;SDS011;65585;51.166;16.922;2024-01-06T04:55:31;26.92;;;13.85;;
76667;SDS011;65585;51.166;16.922;2024-01-06T04:58:26;33.03;;;15.15;;
76667;SDS011;65585;51.166;16.922;2024-01-06T05:01:06;31.45;;;14.93;;
76667;SDS011;65585;51.166;16.922;2024-01-06T05:03:47;28.38;;;15.68;;
76667;SDS011;65585;51.166;16.922;2024-01-06T05:06:33;25.30;;;15.13;;
76667;SDS011;65585;51.166;16.922;2024-01-06T05:09:13;32.28;;;16.50;;
76667;SDS011;65585;51.166;16.922;2024-01-06T05:12:02;31.65;;;14.63;;
76667;SDS011;65585;51.166;16.922;2024-01-06T05:14:47;34.65;;;15.73;;
76667;SDS011;65585;51.166;16.922;2024-01-06T05:17:23;28.38;;;14.13;;
76667;SDS011;65585;51.166;16.922;2024-01-06T05:19:56;28.98;;;13.30;;
76667;SDS011;65585;51.166;16.922;2024-01-06T05:22:29;30.65;;;14.52;;
76667;SDS011;65585;51.166;16.922;2024-01-06T05:25:02;33.58;;;15.02;;
76667;SDS011;65585;51.166;16.922;2024-01-06T05:27:52;31.05;;;15.43;;
76667;SDS011;65585;51.166;16.922;2024-01-06T05:30:28;31.85;;;15.18;;
76667;SDS011;65585;51.166;16.922;2024-01-06T05:33:08;29.05;;;15.25;;
76667;SDS011;65585;51.166;16.922;2024-01-06T05:35:54;30.17;;;13.82;;
76667;SDS011;65585;51.166;16.922;2024-01-06T05:38:44;30.23;;;13.52;;
76667;SDS011;65585;51.166;16.922;2024-01-06T05:41:21;29.83;;;13.82;;
76667;SDS011;65585;51.166;16.922;2024-01-06T05:44:10;28.52;;;14.13;;
76667;SDS011;65585;51.166;16.922;2024-01-06T05:47:02;31.27;;;14.25;;
76667;SDS011;65585;51.166;16.922;2024-01-06T05:49:45;28.90;;;13.55;;
76667;SDS011;65585;51.166;16.922;2024-01-06T05:52:29;29.05;;;14.57;;
76667;SDS011;65585;51.166;16.922;2024-01-06T05:55:01;31.52;;;15.43;;
76667;SDS011;65585;51.166;16.922;2024-01-06T05:57:37;29.20;;;13.88;;
76667;SDS011;65585;51.166;16.922;2024-01-06T06:00:34;28.60;;;14.40;;
76667;SDS011;65585;51.166;16.922;2024-01-06T06:03:34;29.73;;;13.38;;
76667;SDS011;65585;51.166;16.922;2024-01-06T06:06:17;27.30;;;13.35;;
76667;SDS011;65585;51.166;16.922;2024-01-06T06:09:01;34.22;;;15.07;;
76667;SDS011;65585;51.166;16.922;2024-01-06T06:11:39;28.35;;;14.32;;
76667;SDS011;65585;51.166;16.922;2024-01-06T06:14:10;30.45;;;14.70;;
76667;SDS011;65585;51.166;16.922;2024-01-06T06:16:48;28.92;;;14.57;;
76667;SDS011;65585;51.166;16.922;2024-01-06T06:19:23;30.92;;;14.05;;
76667;SDS011;65585;51.166;16.922;2024-01-06T06:22:02;32.80;;;15.57;;
76667;SDS011;65585;51.166;16.922;2024-01-06T06:24:45;27.85;;;13.85;;
76667;SDS011;65585;51.166;16.922;2024-01-06T06:27:22;31.40;;;14.80;;
76667;SDS011;65585;51.166;16.922;2024-01-06T06:29:57;27.77;;;14.43;;
76667;SDS011;65585;51.166;16.922;2024-01-06T06:32:34;26.00;;;13.15;;
76667;SDS011;65585;51.166;16.922;2024-01-06T06:35:33;31.83;;;14.07;;
76667;SDS011;65585;51.166;16.922;2024-01-06T06:38:18;26.50;;;13.68;;
76667;SDS011;65585;51.166;16.922;2024-01-06T06:41:13;29.83;;;14.65;;
76667;SDS011;65585;51.166;16.922;2024-01-06T06:43:45;27.10;;;13.73;;
76667;SDS011;65585;51.166;16.922;2024-01-06T06:46:18;25.60;;;13.48;;
76667;SDS011;65585;51.166;16.922;2024-01-06T06:48:52;28.13;;;12.25;;
76667;SDS011;65585;51.166;16.922;2024-01-06T06:51:28;31.27;;;15.25;;
76667;SDS011;65585;51.166;16.922;2024-01-06T06:54:00;28.33;;;14.27;;
76667;SDS011;65585;51.166;16.922;2024-01-06T06:56:37;30.45;;;14.27;;
76667;SDS011;65585;51.166;16.922;2024-01-06T07:01:49;22.88;;;11.77;;
76667;SDS011;65585;51.166;16.922;2024-01-06T07:04:25;30.42;;;12.57;;
76667;SDS011;65585;51.166;16.922;2024-01-06T07:06:58;29.80;;;14.25;;
76667;SDS011;65585;51.166;16.922;2024-01-06T07:09:41;26.00;;;12.45;;
76667;SDS011;65585;51.166;16.922;2024-01-06T07:12:24;30.73;;;13.88;;
76667;SDS011;65585;51.166;16.922;2024-01-06T07:15:13;26.70;;;14.15;;
76667;SDS011;65585;51.166;16.922;2024-01-06T07:18:19;27.92;;;12.82;;
76667;SDS011;65585;51.166;16.922;2024-01-06T07:25:02;26.17;;;12.57;;
76667;SDS011;65585;51.166;16.922;2024-01-06T07:28:08;23.50;;;13.13;;
76667;SDS011;65585;51.166;16.922;2024-01-06T07:30:48;30.33;;;14.00;;
76667;SDS011;65585;51.166;16.922;2024-01-06T07:33:34;27.85;;;13.40;;
76667;SDS011;65585;51.166;16.922;2024-01-06T07:36:12;30.13;;;15.05;;
76667;SDS011;65585;51.166;16.922;2024-01-06T07:38:42;31.63;;;14.48;;
76667;SDS011;65585;51.166;16.922;2024-01-06T07:41:23;29.15;;;13.77;;
76667;SDS011;65585;51.166;16.922;2024-01-06T07:44:09;25.92;;;14.07;;
76667;SDS011;65585;51.166;16.922;2024-01-06T07:47:01;25.65;;;13.48;;
76667;SDS011;65585;51.166;16.922;2024-01-06T07:49:51;28.77;;;12.73;;
76667;SDS011;65585;51.166;16.922;2024-01-06T07:56:50;27.80;;;12.05;;
76667;SDS011;65585;51.166;16.922;2024-01-06T07:59:32;27.67;;;13.32;;
76667;SDS011;65585;51.166;16.922;2024-01-06T08:05:42;27.77;;;13.05;;
76667;SDS011;65585;51.166;16.922;2024-01-06T08:32:09;27.27;;;13.40;;
76667;SDS011;65585;51.166;16.922;2024-01-06T08:34:37;22.58;;;13.07;;
76667;SDS011;65585;51.166;16.922;2024-01-06T08:37:03;26.08;;;13.07;;
76667;SDS011;65585;51.166;16.922;2024-01-06T08:39:29;23.05;;;12.07;;
76667;SDS011;65585;51.166;16.922;2024-01-06T08:41:55;27.38;;;13.18;;
76667;SDS011;65585;51.166;16.922;2024-01-06T08:44:21;24.95;;;13.43;;
76667;SDS011;65585;51.166;16.922;2024-01-06T08:46:47;25.65;;;12.43;;
76667;SDS011;65585;51.166;16.922;2024-01-06T08:49:13;25.05;;;14.05;;
76667;SDS011;65585;51.166;16.922;2024-01-06T08:51:39;26.10;;;13.38;;
76667;SDS011;65585;51.166;16.922;2024-01-06T08:54:06;26.00;;;13.73;;
76667;SDS011;65585;51.166;16.922;2024-01-06T08:56:33;25.48;;;13.32;;
76667;SDS011;65585;51.166;16.922;2024-01-06T08:58:59;26.38;;;13.13;;
76667;SDS011;65585;51.166;16.922;2024-01-06T09:01:25;23.73;;;12.52;;
76667;SDS011;65585;51.166;16.922;2024-01-06T09:03:51;28.23;;;14.13;;
76667;SDS011;65585;51.166;16.922;2024-01-06T09:06:17;29.55;;;14.80;;
76667;SDS011;65585;51.166;16.922;2024-01-06T09:08:43;25.05;;;13.73;;
76667;SDS011;65585;51.166;16.922;2024-01-06T09:11:09;26.00;;;14.23;;
76667;SDS011;65585;51.166;16.922;2024-01-06T09:13:35;33.78;;;15.23;;
76667;SDS011;65585;51.166;16.922;2024-01-06T09:16:01;23.10;;;12.68;;
76667;SDS011;65585;51.166;16.922;2024-01-06T09:18:27;27.42;;;13.57;;
76667;SDS011;65585;51.166;16.922;2024-01-06T09:20:53;27.38;;;13.43;;
76667;SDS011;65585;51.166;16.922;2024-01-06T09:23:20;27.55;;;14.20;;
76667;SDS011;65585;51.166;16.922;2024-01-06T09:25:46;26.25;;;14.85;;
76667;SDS011;65585;51.166;16.922;2024-01-06T09:28:15;24.20;;;12.98;;
76667;SDS011;65585;51.166;16.922;2024-01-06T09:30:41;28.45;;;13.82;;
76667;SDS011;65585;51.166;16.922;2024-01-06T09:33:07;23.10;;;12.80;;
76667;SDS011;65585;51.166;16.922;2024-01-06T09:35:36;31.73;;;14.77;;
76667;SDS011;65585;51.166;16.922;2024-01-06T09:38:02;26.52;;;14.07;;
76667;SDS011;65585;51.166;16.922;2024-01-06T09:40:28;27.70;;;13.40;;
76667;SDS011;65585;51.166;16.922;2024-01-06T09:42:57;27.75;;;13.80;;
76667;SDS011;65585;51.166;16.922;2024-01-06T09:45:23;27.33;;;13.52;;
76667;SDS011;65585;51.166;16.922;2024-01-06T09:47:50;29.35;;;14.88;;
76667;SDS011;65585;51.166;16.922;2024-01-06T09:50:20;26.50;;;13.60;;
76667;SDS011;65585;51.166;16.922;2024-01-06T09:52:46;24.55;;;13.45;;
76667;SDS011;65585;51.166;16.922;2024-01-06T09:55:29;26.63;;;13.63;;
76667;SDS011;65585;51.166;16.922;2024-01-06T09:57:55;26.90;;;14.38;;
76667;SDS011;65585;51.166;16.922;2024-01-06T10:00:21;22.25;;;12.77;;
76667;SDS011;65585;51.166;16.922;2024-01-06T10:02:47;26.10;;;14.98;;
76667;SDS011;65585;51.166;16.922;2024-01-06T10:05:17;34.05;;;14.88;;
76667;SDS011;65585;51.166;16.922;2024-01-06T10:07:44;25.55;;;13.18;;
76667;SDS011;65585;51.166;16.922;2024-01-06T10:10:10;30.67;;;16.35;;
76667;SDS011;65585;51.166;16.922;2024-01-06T10:12:37;23.17;;;12.82;;
76667;SDS011;65585;51.166;16.922;2024-01-06T10:15:05;29.35;;;14.60;;
76667;SDS011;65585;51.166;16.922;2024-01-06T10:17:38;27.65;;;15.20;;
76667;SDS011;65585;51.166;16.922;2024-01-06T10:20:09;25.65;;;13.68;;
76667;SDS011;65585;51.166;16.922;2024-01-06T10:22:40;30.10;;;14.20;;
76667;SDS011;65585;51.166;16.922;2024-01-06T10:25:07;34.92;;;14.98;;
76667;SDS011;65585;51.166;16.922;2024-01-06T10:27:38;23.58;;;13.80;;
76667;SDS011;65585;51.166;16.922;2024-01-06T10:30:08;25.98;;;14.50;;
76667;SDS011;65585;51.166;16.922;2024-01-06T10:32:36;25.08;;;13.95;;
76667;SDS011;65585;51.166;16.922;2024-01-06T10:35:02;26.42;;;14.20;;
76667;SDS011;65585;51.166;16.922;2024-01-06T10:37:29;27.73;;;15.18;;
76667;SDS011;65585;51.166;16.922;2024-01-06T10:40:08;25.10;;;13.70;;
76667;SDS011;65585;51.166;16.922;2024-01-06T10:42:38;37.42;;;20.70;;
76667;SDS011;65585;51.166;16.922;2024-01-06T10:45:08;26.63;;;13.82;;
76667;SDS011;65585;51.166;16.922;2024-01-06T10:47:39;19.77;;;11.73;;
76667;SDS011;65585;51.166;16.922;2024-01-06T10:50:06;25.33;;;12.07;;
76667;SDS011;65585;51.166;16.922;2024-01-06T10:52:37;24.13;;;11.63;;
76667;SDS011;65585;51.166;16.922;2024-01-06T10:55:04;22.85;;;13.05;;
76667;SDS011;65585;51.166;16.922;2024-01-06T10:57:31;23.92;;;13.18;;
76667;SDS011;65585;51.166;16.922;2024-01-06T10:59:57;26.05;;;14.68;;
76667;SDS011;65585;51.166;16.922;2024-01-06T11:02:25;22.55;;;12.65;;
76667;SDS011;65585;51.166;16.922;2024-01-06T11:04:52;25.77;;;15.40;;
76667;SDS011;65585;51.166;16.922;2024-01-06T11:07:19;26.33;;;14.32;;
76667;SDS011;65585;51.166;16.922;2024-01-06T11:10:00;29.67;;;15.30;;
76667;SDS011;65585;51.166;16.922;2024-01-06T11:12:31;27.30;;;14.88;;
76667;SDS011;65585;51.166;16.922;2024-01-06T11:14:57;27.63;;;15.00;;
76667;SDS011;65585;51.166;16.922;2024-01-06T11:20:28;32.55;;;15.52;;
76667;SDS011;65585;51.166;16.922;2024-01-06T11:22:54;30.30;;;15.57;;
76667;SDS011;65585;51.166;16.922;2024-01-06T11:25:46;27.08;;;15.38;;
76667;SDS011;65585;51.166;16.922;2024-01-06T11:28:12;28.85;;;15.50;;
76667;SDS011;65585;51.166;16.922;2024-01-06T11:30:38;32.70;;;15.48;;
76667;SDS011;65585;51.166;16.922;2024-01-06T11:33:06;43.10;;;19.55;;
76667;SDS011;65585;51.166;16.922;2024-01-06T11:35:31;42.00;;;19.23;;
76667;SDS011;65585;51.166;16.922;2024-01-06T11:38:00;35.15;;;19.58;;
76667;SDS011;65585;51.166;16.922;2024-01-06T11:40:33;35.22;;;17.25;;
76667;SDS011;65585;51.166;16.922;2024-01-06T11:43:08;36.90;;;17.08;;
76667;SDS011;65585;51.166;16.922;2024-01-06T11:45:38;35.60;;;17.13;;
76667;SDS011;65585;51.166;16.922;2024-01-06T11:48:10;36.15;;;18.00;;
76667;SDS011;65585;51.166;16.922;2024-01-06T11:50:40;40.58;;;20.85;;
76667;SDS011;65585;51.166;16.922;2024-01-06T11:53:06;41.75;;;21.35;;
76667;SDS011;65585;51.166;16.922;2024-01-06T11:55:34;38.08;;;18.98;;
76667;SDS011;65585;51.166;16.922;2024-01-06T11:58:02;39.83;;;18.98;;
76667;SDS011;65585;51.166;16.922;2024-01-06T12:00:28;37.95;;;18.67;;
76667;SDS011;65585;51.166;16.922;2024-01-06T12:02:55;44.47;;;20.77;;
76667;SDS011;65585;51.166;16.922;2024-01-06T12:05:22;42.00;;;21.70;;
76667;SDS011;65585;51.166;16.922;2024-01-06T12:07:57;41.20;;;21.17;;
76667;SDS011;65585;51.166;16.922;2024-01-06T12:10:28;41.72;;;20.75;;
76667;SDS011;65585;51.166;16.922;2024-01-06T12:12:57;46.17;;;22.30;;
76667;SDS011;65585;51.166;16.922;2024-01-06T12:15:24;49.63;;;25.05;;
76667;SDS011;65585;51.166;16.922;2024-01-06T12:17:50;56.63;;;26.55;;
76667;SDS011;65585;51.166;16.922;2024-01-06T12:20:16;43.15;;;22.83;;
76667;SDS011;65585;51.166;16.922;2024-01-06T12:22:42;39.58;;;20.55;;
76667;SDS011;65585;51.166;16.922;2024-01-06T12:25:09;44.22;;;20.08;;
76667;SDS011;65585;51.166;16.922;2024-01-06T12:27:36;42.53;;;20.98;;
76667;SDS011;65585;51.166;16.922;2024-01-06T12:30:11;40.90;;;21.42;;
76667;SDS011;65585;51.166;16.922;2024-01-06T12:32:41;44.88;;;22.05;;
76667;SDS011;65585;51.166;16.922;2024-01-06T12:35:09;42.15;;;20.67;;
76667;SDS011;65585;51.166;16.922;2024-01-06T12:37:36;45.95;;;24.08;;
76667;SDS011;65585;51.166;16.922;2024-01-06T12:40:01;52.17;;;24.83;;
76667;SDS011;65585;51.166;16.922;2024-01-06T12:42:27;49.15;;;22.02;;
76667;SDS011;65585;51.166;16.922;2024-01-06T12:44:53;48.90;;;23.05;;
76667;SDS011;65585;51.166;16.922;2024-01-06T12:47:19;40.85;;;20.92;;
76667;SDS011;65585;51.166;16.922;2024-01-06T12:49:45;42.42;;;21.83;;
76667;SDS011;65585;51.166;16.922;2024-01-06T12:52:11;41.50;;;21.35;;
76667;SDS011;65585;51.166;16.922;2024-01-06T12:54:38;42.80;;;20.27;;
76667;SDS011;65585;51.166;16.922;2024-01-06T12:57:07;43.17;;;19.77;;
76667;SDS011;65585;51.166;16.922;2024-01-06T12:59:33;45.13;;;20.65;;
76667;SDS011;65585;51.166;16.922;2024-01-06T13:01:59;36.28;;;18.73;;
76667;SDS011;65585;51.166;16.922;2024-01-06T13:04:25;37.58;;;18.15;;
76667;SDS011;65585;51.166;16.922;2024-01-06T13:06:51;41.80;;;19.13;;
76667;SDS011;65585;51.166;16.922;2024-01-06T13:09:17;47.13;;;21.38;;
76667;SDS011;65585;51.166;16.922;2024-01-06T13:11:43;48.10;;;22.00;;
76667;SDS011;65585;51.166;16.922;2024-01-06T13:14:11;48.10;;;20.88;;
76667;SDS011;65585;51.166;16.922;2024-01-06T13:16:38;43.55;;;20.00;;
76667;SDS011;65585;51.166;16.922;2024-01-06T13:19:04;41.97;;;20.92;;
76667;SDS011;65585;51.166;16.922;2024-01-06T13:21:30;40.33;;;18.92;;
76667;SDS011;65585;51.166;16.922;2024-01-06T13:23:56;37.53;;;16.90;;
76667;SDS011;65585;51.166;16.922;2024-01-06T13:26:26;36.58;;;17.88;;
76667;SDS011;65585;51.166;16.922;2024-01-06T13:28:53;50.00;;;22.58;;
76667;SDS011;65585;51.166;16.922;2024-01-06T13:31:20;75.10;;;29.33;;
76667;SDS011;65585;51.166;16.922;2024-01-06T13:33:46;49.80;;;21.20;;
76667;SDS011;65585;51.166;16.922;2024-01-06T13:36:12;46.75;;;21.08;;
76667;SDS011;65585;51.166;16.922;2024-01-06T13:38:38;48.03;;;23.42;;
76667;SDS011;65585;51.166;16.922;2024-01-06T13:41:04;48.13;;;20.65;;
76667;SDS011;65585;51.166;16.922;2024-01-06T13:43:30;40.30;;;18.33;;
76667;SDS011;65585;51.166;16.922;2024-01-06T13:45:57;49.58;;;22.60;;
76667;SDS011;65585;51.166;16.922;2024-01-06T13:48:23;44.72;;;19.48;;
76667;SDS011;65585;51.166;16.922;2024-01-06T13:50:49;43.92;;;21.10;;
76667;SDS011;65585;51.166;16.922;2024-01-06T13:53:15;46.38;;;19.83;;
76667;SDS011;65585;51.166;16.922;2024-01-06T13:55:41;39.85;;;19.30;;
76667;SDS011;65585;51.166;16.922;2024-01-06T13:58:07;44.70;;;20.98;;
76667;SDS011;65585;51.166;16.922;2024-01-06T14:00:36;42.63;;;20.70;;
76667;SDS011;65585;51.166;16.922;2024-01-06T14:03:03;44.03;;;22.05;;
76667;SDS011;65585;51.166;16.922;2024-01-06T14:05:30;44.00;;;20.40;;
76667;SDS011;65585;51.166;16.922;2024-01-06T14:07:56;41.08;;;20.17;;
76667;SDS011;65585;51.166;16.922;2024-01-06T14:10:22;37.90;;;18.00;;
76667;SDS011;65585;51.166;16.922;2024-01-06T14:12:47;43.67;;;19.25;;
76667;SDS011;65585;51.166;16.922;2024-01-06T14:15:14;43.40;;;21.05;;
76667;SDS011;65585;51.166;16.922;2024-01-06T14:17:39;40.97;;;18.00;;
76667;SDS011;65585;51.166;16.922;2024-01-06T14:20:06;46.17;;;20.60;;
76667;SDS011;65585;51.166;16.922;2024-01-06T14:25:03;33.88;;;15.90;;
76667;SDS011;65585;51.166;16.922;2024-01-06T14:27:31;37.40;;;18.33;;
76667;SDS011;65585;51.166;16.922;2024-01-06T14:29:57;35.78;;;19.33;;
76667;SDS011;65585;51.166;16.922;2024-01-06T14:32:23;42.50;;;18.63;;
76667;SDS011;65585;51.166;16.922;2024-01-06T14:34:49;44.60;;;19.05;;
76667;SDS011;65585;51.166;16.922;2024-01-06T14:37:16;40.30;;;20.15;;
76667;SDS011;65585;51.166;16.922;2024-01-06T14:39:42;33.92;;;16.98;;
76667;SDS011;65585;51.166;16.922;2024-01-06T14:42:08;35.95;;;19.15;;
76667;SDS011;65585;51.166;16.922;2024-01-06T14:44:35;36.50;;;17.92;;
76667;SDS011;65585;51.166;16.922;2024-01-06T14:47:01;37.83;;;17.98;;
76667;SDS011;65585;51.166;16.922;2024-01-06T14:49:27;41.17;;;19.15;;
76667;SDS011;65585;51.166;16.922;2024-01-06T14:51:53;36.40;;;18.85;;
76667;SDS011;65585;51.166;16.922;2024-01-06T14:54:19;42.55;;;18.92;;
76667;SDS011;65585;51.166;16.922;2024-01-06T14:56:45;33.47;;;15.93;;
76667;SDS011;65585;51.166;16.922;2024-01-06T14:59:12;42.10;;;20.13;;
76667;SDS011;65585;51.166;16.922;2024-01-06T15:01:41;35.72;;;17.05;;
76667;SDS011;65585;51.166;16.922;2024-01-06T15:04:09;43.58;;;18.02;;
76667;SDS011;65585;51.166;16.922;2024-01-06T15:06:35;37.60;;;17.55;;
76667;SDS011;65585;51.166;16.922;2024-01-06T15:09:02;40.70;;;17.65;;
76667;SDS011;65585;51.166;16.922;2024-01-06T15:11:27;35.97;;;17.85;;
76667;SDS011;65585;51.166;16.922;2024-01-06T15:13:53;34.15;;;17.27;;
76667;SDS011;65585;51.166;16.922;2024-01-06T15:16:19;33.00;;;17.00;;
76667;SDS011;65585;51.166;16.922;2024-01-06T15:18:45;39.28;;;17.67;;
76667;SDS011;65585;51.166;16.922;2024-01-06T15:21:12;35.28;;;16.88;;
76667;SDS011;65585;51.166;16.922;2024-01-06T15:23:40;38.78;;;18.73;;